AirNav   Air Wisconsin Up To $57,000 Bonus
 
 288 users online  

U09 Fort Belknap Agency Airport
Harlem, Montana, USA

GOING TO HARLEM?


FAA INFORMATION EFFECTIVE 25 FEBRUARY 2021

Location

FAA Identifier: U09
Lat/Long: 48-28-51.9880N 108-46-08.5650W
48-28.866467N 108-46.142750W
48.4811078,-108.7690458
(estimated)
Elevation: 2374 ft. / 724 m (estimated)
Variation: 16E (1985)
From city: 4 miles SE of HARLEM, MT
Time zone: UTC -7 (UTC -6 during Daylight Saving Time)
Zip code: 59526

Airport Operations

Airport use: Open to the public
Activation date: 11/1976
Control tower: no
ARTCC: SALT LAKE CITY CENTER
FSS: GREAT FALLS FLIGHT SERVICE STATION
NOTAMs facility: GTF (NOTAM-D service available)
Attendance: UNATNDD
Wind indicator: yes
Segmented circle: no

Airport Communications

CTAF: 122.9

Nearby radio navigation aids

VOR radial/distance  VOR name  Freq  Var
HVRr079/39.9HAVRE VOR/DME111.8016E

Airport Services

Airframe service: NONE
Powerplant service: NONE
Bottled oxygen: NONE
Bulk oxygen: NONE

Runway Information

Runway 10/28

Dimensions: 3200 x 55 ft. / 975 x 17 m
Surface: asphalt, in fair condition
Weight bearing capacity: 
Single wheel: 4.0
RUNWAY 10  RUNWAY 28
Traffic pattern: leftleft

Helipad H1

Dimensions: 50 x 50 ft. / 15 x 15 m
Surface: asphalt, in good condition
Traffic pattern: leftleft

Airport Ownership and Management from official FAA records

Ownership: Privately-owned
Owner: FORT BELKNAP AGENCY
656 AGENCY MAIN ST
HARLEM, MT 59526
Phone (406) 353-2205
Manager: MARK AZURE
FORT BELKNAP AGENCY, 656 AGENCY MAIN ST
HARLEM, MT 59526
Phone 406-353-2205
EXT 224.

Additional Remarks

A58-28 ROAD ENTERS ONTO END OF RUNWAY
A58-10 ROAD 30 FEET FROM RUNWAY END
AIRPORT CLOSED
FOR CD CTC SALT LAKE ARTCC AT 801-320-2568.

Instrument Procedures

There are no published instrument procedures at U09.

Some nearby airports with instrument procedures:

M75 - Malta Airport (35 nm E)
KHVR - Havre City-County Airport (40 nm W)
79S - Fort Benton Airport (84 nm SW)
KGGW - Wokal Field/Glasgow-Valley County Airport (87 nm E)
KLWT - Lewistown Municipal Airport (90 nm S)
 
Loc | Ops | Rwys | IFR | FBO | Links
Com | Nav | Svcs | Stats | Notes
Area around U09 (Fort Belknap Agency Airport)
 
Road maps at: MapQuest Bing Google
 
Aerial photo
No photo
 
Sectional chart

 
Airport distance calculator
Flying to Fort Belknap Agency Airport? Find the distance to fly.

From to U09

Sunrise and sunset
Times for 06-Mar-2021
 Local
(UTC-7)
 Zulu
(UTC)
Morning civil twilight06:1613:16
Sunrise06:4813:48
Sunset18:0501:05
Evening civil twilight18:3701:37

Current date and time
Zulu (UTC)  06-Mar-2021 09:46:44
Local (UTC-7)  06-Mar-2021 02:46:44
 
METAR
KS71 
20nm W 
060900Z AUTO 09004KT 10SM 00/M04 A2986
KM75 
35nm E 
060855Z AUTO 05003KT 10SM CLR M02/M04 A2988 RMK A01
KHVR 
40nm W 
060853Z AUTO 11005KT 10SM CLR M02/M04 A2985 RMK AO2 SLP121 T10171039 56009
TAF
KHVR 
40nm W 
060520Z 0606/0706 VRB06KT P6SM SCT250 FM061900 24008KT P6SM SCT090 BKN250 FM062300 28013G23KT P6SM SCT050 OVC250 FM070300 27011KT P6SM FEW015 SCT120
NOTAMs
Click for the latest NOTAMs
NOTAMs are issued by the DoD/FAA and will open in a separate window not controlled by AirNav.

 

 
 

Would you like to see your business listed on this page?

 If your business provides an interesting product or service to pilots, flight crews, aircraft, or users of the Fort Belknap Agency Airport, you should consider listing it here.  To start the listing process, click on the button below
 
Add a business
 

Other Pages about Fort Belknap Agency Airport

Update a link
 
Copyright © AirNav, LLC. All rights reserved. Privacy Policy  Contact